< < Back
Terminal Aerodrome Forecast


Current Version              Previous Versions:   1  2  3  4  5  6  7  8  9  

Terminal Aerodrome Forecast

288
FTUS42 KFFC 071002 AAB
TAFPDK
TAF AMD
KPDK 071002Z 0710/0806 23004KT 6SM BR FEW200
     FM071600 27006KT P6SM FEW050
     FM080200 26005KT P6SM FEW150=



Latest METAR

159
SAUS70 KWBC 071100 RRD
MTRPDK
METAR KPDK 071053Z 00000KT 3SM BR CLR 21/20 A3016 RMK AO2 SLP199
T02060200


USA.gov is the U.S. government's official web portal to all federal, state and local government web resources and services.